createdAt,value
2023-01-07T00:00:44.922Z,12.40
2023-01-07T00:05:43.924Z,12.40
2023-01-07T00:10:42.928Z,12.30
2023-01-07T00:15:41.872Z,12.40
2023-01-07T00:20:40.830Z,12.40
2023-01-07T00:25:39.969Z,12.40
2023-01-07T00:30:38.964Z,12.40
2023-01-07T00:35:37.989Z,12.50
2023-01-07T00:40:36.823Z,12.50
2023-01-07T00:45:36.104Z,12.60
2023-01-07T00:50:35.103Z,12.50
2023-01-07T00:55:34.071Z,12.50
2023-01-07T01:00:33.189Z,12.50
2023-01-07T01:05:32.743Z,12.50
2023-01-07T01:10:32.158Z,12.50
2023-01-07T01:15:30.996Z,12.50
2023-01-07T01:20:29.905Z,12.50
2023-01-07T01:25:29.108Z,12.50
2023-01-07T01:30:29.439Z,12.50
2023-01-07T01:35:30.072Z,12.50
2023-01-07T01:40:29.123Z,12.50
2023-01-07T01:45:28.124Z,12.50
2023-01-07T01:50:27.345Z,12.50
2023-01-07T01:55:27.449Z,12.50
2023-01-07T02:00:27.202Z,12.50
2023-01-07T02:05:26.021Z,12.50
2023-01-07T02:10:25.435Z,12.50
2023-01-07T02:15:24.963Z,12.50
2023-01-07T02:20:24.068Z,12.50
2023-01-07T02:25:23.314Z,12.40
2023-01-07T02:30:22.186Z,12.40
2023-01-07T02:35:21.728Z,12.40
2023-01-07T02:40:21.928Z,12.40
2023-01-07T02:45:21.081Z,12.40
2023-01-07T02:50:20.091Z,12.40
2023-01-07T02:55:19.602Z,12.40
2023-01-07T03:00:19.066Z,12.30
2023-01-07T03:05:18.199Z,12.30
2023-01-07T03:10:16.941Z,12.30
2023-01-07T03:15:16.095Z,12.30
2023-01-07T03:20:15.093Z,12.30
2023-01-07T03:25:14.014Z,12.30
2023-01-07T03:30:13.334Z,12.30
2023-01-07T03:35:12.128Z,12.30
2023-01-07T03:40:11.832Z,12.20
2023-01-07T03:45:11.138Z,12.10
2023-01-07T03:50:11.390Z,12.00
2023-01-07T03:55:10.437Z,11.90
2023-01-07T04:00:14.785Z,11.80
2023-01-07T04:05:15.269Z,11.70
2023-01-07T04:10:15.728Z,11.60
2023-01-07T04:15:15.183Z,11.60
2023-01-07T04:20:13.963Z,11.60
2023-01-07T04:25:13.088Z,11.50
2023-01-07T04:30:12.193Z,11.50
2023-01-07T04:35:11.146Z,11.50
2023-01-07T04:40:10.519Z,11.50
2023-01-07T04:45:09.346Z,11.60
2023-01-07T04:50:11.199Z,11.60
2023-01-07T04:55:11.195Z,11.60
2023-01-07T05:00:15.044Z,11.50
2023-01-07T05:05:14.572Z,11.60
2023-01-07T05:10:14.210Z,11.60
2023-01-07T05:15:14.430Z,11.70
2023-01-07T05:20:13.950Z,11.70
2023-01-07T05:25:13.101Z,11.70
2023-01-07T05:30:12.116Z,11.80
2023-01-07T05:35:11.609Z,11.80
2023-01-07T05:40:11.383Z,11.70
2023-01-07T05:45:10.080Z,11.70
2023-01-07T05:50:09.094Z,11.70
2023-01-07T05:55:08.383Z,11.70
2023-01-07T06:00:08.989Z,11.70
2023-01-07T06:05:08.508Z,11.70
2023-01-07T06:10:08.197Z,11.70
2023-01-07T06:15:07.192Z,11.80
2023-01-07T06:20:06.354Z,11.80
2023-01-07T06:25:05.025Z,11.90
2023-01-07T06:30:04.289Z,11.90
2023-01-07T06:35:03.298Z,11.90
2023-01-07T06:40:02.078Z,11.90
2023-01-07T06:45:01.086Z,11.80
2023-01-07T06:50:00.083Z,11.80
2023-01-07T06:54:59.019Z,11.80
2023-01-07T06:59:58.011Z,11.80
2023-01-07T07:04:57.123Z,11.80
2023-01-07T07:09:56.032Z,11.80
2023-01-07T07:14:55.135Z,11.80
2023-01-07T07:19:53.955Z,11.90
2023-01-07T07:24:53.087Z,11.90
2023-01-07T07:29:52.180Z,11.90
2023-01-07T07:34:50.982Z,11.90
2023-01-07T07:39:50.005Z,11.90
2023-01-07T07:44:49.877Z,11.80
2023-01-07T07:49:49.889Z,11.80
2023-01-07T07:54:49.306Z,11.80
2023-01-07T07:59:48.081Z,11.80
2023-01-07T08:04:47.029Z,11.80
2023-01-07T08:09:46.103Z,11.90
2023-01-07T08:14:45.111Z,11.90
2023-01-07T08:19:44.081Z,12.00
2023-01-07T08:24:43.041Z,12.00
2023-01-07T08:29:42.176Z,12.10
2023-01-07T08:34:41.002Z,12.10
2023-01-07T08:39:40.096Z,12.20
2023-01-07T08:44:39.171Z,12.20
2023-01-07T08:49:38.097Z,12.20
2023-01-07T08:54:37.645Z,12.30
2023-01-07T08:59:39.142Z,12.40
2023-01-07T09:04:38.289Z,12.40
2023-01-07T09:09:37.317Z,12.50
2023-01-07T09:14:36.108Z,12.50
2023-01-07T09:19:35.125Z,12.60
2023-01-07T09:24:34.354Z,12.60
2023-01-07T09:29:33.150Z,12.60
2023-01-07T09:34:32.238Z,12.70
2023-01-07T09:39:31.421Z,12.80
2023-01-07T09:44:30.185Z,13.00
2023-01-07T09:49:29.497Z,13.10
2023-01-07T09:54:28.193Z,13.30
2023-01-07T09:59:27.228Z,13.50
2023-01-07T10:04:26.249Z,13.70
2023-01-07T10:09:25.061Z,13.70
2023-01-07T10:14:25.049Z,13.70
2023-01-07T10:19:24.194Z,13.50
2023-01-07T10:24:23.301Z,13.40
2023-01-07T10:29:22.309Z,13.30
2023-01-07T10:34:21.341Z,13.30
2023-01-07T10:39:20.138Z,13.30
2023-01-07T10:44:19.340Z,13.30
2023-01-07T10:49:18.367Z,13.30
2023-01-07T10:54:17.178Z,13.40
2023-01-07T10:59:16.189Z,13.60
2023-01-07T11:04:15.504Z,13.70
2023-01-07T11:09:14.206Z,13.80
2023-01-07T11:14:13.221Z,13.90
2023-01-07T11:19:12.259Z,13.80
2023-01-07T11:24:11.232Z,13.80
2023-01-07T11:29:10.228Z,13.80
2023-01-07T11:34:09.286Z,13.70
2023-01-07T11:39:08.095Z,13.80
2023-01-07T11:44:07.183Z,14.00
2023-01-07T11:49:06.283Z,14.00
2023-01-07T11:54:05.312Z,14.10
2023-01-07T11:59:04.312Z,14.10
2023-01-07T12:04:03.324Z,14.10
2023-01-07T12:09:02.389Z,14.00
2023-01-07T12:14:01.131Z,14.00
2023-01-07T12:19:00.412Z,14.10
2023-01-07T12:23:59.362Z,14.20
2023-01-07T12:28:58.264Z,14.10
2023-01-07T12:33:57.187Z,14.10
2023-01-07T12:38:57.064Z,14.20
2023-01-07T12:43:57.825Z,14.10
2023-01-07T12:48:57.279Z,14.20
2023-01-07T12:53:56.311Z,14.00
2023-01-07T12:58:55.332Z,13.80
2023-01-07T13:03:54.453Z,13.60
2023-01-07T13:08:53.324Z,13.50
2023-01-07T13:13:52.403Z,13.50
2023-01-07T13:18:51.153Z,13.40
2023-01-07T13:23:50.297Z,13.40
2023-01-07T13:28:49.185Z,13.50
2023-01-07T13:33:48.216Z,13.60
2023-01-07T13:38:47.467Z,13.70
2023-01-07T13:43:46.530Z,13.60
2023-01-07T13:48:45.239Z,13.70
2023-01-07T13:53:45.713Z,13.70
2023-01-07T13:58:44.743Z,13.70
2023-01-07T14:03:43.306Z,13.70
2023-01-07T14:08:42.294Z,13.60
2023-01-07T14:13:41.328Z,13.60
2023-01-07T14:18:40.222Z,13.80
2023-01-07T14:23:42.407Z,14.00
2023-01-07T14:28:41.294Z,14.20
2023-01-07T14:33:40.326Z,14.30
2023-01-07T14:38:41.012Z,14.20
2023-01-07T14:43:40.354Z,13.90
2023-01-07T14:48:39.298Z,13.70
2023-01-07T14:53:38.421Z,13.50
2023-01-07T14:58:37.227Z,13.40
2023-01-07T15:03:36.239Z,13.30
2023-01-07T15:08:54.122Z,13.10
2023-01-07T15:14:11.552Z,13.00
2023-01-07T15:19:10.213Z,12.80
2023-01-07T15:24:09.258Z,12.60
2023-01-07T15:29:09.108Z,12.40
2023-01-07T15:34:08.301Z,12.20
2023-01-07T15:39:07.324Z,12.10
2023-01-07T15:44:09.299Z,12.00
2023-01-07T15:49:08.378Z,11.90
2023-01-07T15:54:08.324Z,11.80
2023-01-07T15:59:07.439Z,11.70
2023-01-07T16:04:07.647Z,11.60
2023-01-07T16:09:07.341Z,11.50
2023-01-07T16:14:06.361Z,11.50
2023-01-07T16:19:05.540Z,11.40
2023-01-07T16:24:04.556Z,11.40
2023-01-07T16:29:03.582Z,11.30
2023-01-07T16:34:02.868Z,11.20
2023-01-07T16:39:01.388Z,11.20
2023-01-07T16:44:00.297Z,11.20
2023-01-07T16:48:59.303Z,11.10
2023-01-07T16:53:58.406Z,11.10
2023-01-07T16:58:57.426Z,11.10
2023-01-07T17:03:56.506Z,11.00
2023-01-07T17:08:55.589Z,11.10
2023-01-07T17:13:54.380Z,11.10
2023-01-07T17:18:53.376Z,11.10
2023-01-07T17:23:52.506Z,11.10
2023-01-07T17:28:51.671Z,11.10
2023-01-07T17:33:50.503Z,11.00
2023-01-07T17:38:49.314Z,11.10
2023-01-07T17:43:48.737Z,11.10
2023-01-07T17:48:47.521Z,11.10
2023-01-07T17:53:46.845Z,11.10
2023-01-07T17:58:45.559Z,11.10
2023-01-07T18:03:45.729Z,11.20
2023-01-07T18:08:44.594Z,11.20
2023-01-07T18:13:43.415Z,11.30
2023-01-07T18:18:42.527Z,11.40
2023-01-07T18:23:41.433Z,11.40
2023-01-07T18:28:40.442Z,11.40
2023-01-07T18:33:39.438Z,11.40
2023-01-07T18:38:38.467Z,11.50
2023-01-07T18:43:37.456Z,11.50
2023-01-07T18:48:36.471Z,11.50
2023-01-07T18:53:35.523Z,11.60
2023-01-07T18:58:34.492Z,11.60
2023-01-07T19:03:33.567Z,11.60
2023-01-07T19:08:32.473Z,11.70
2023-01-07T19:13:31.524Z,11.70
2023-01-07T19:18:30.347Z,11.70
2023-01-07T19:23:29.358Z,11.70
2023-01-07T19:28:28.689Z,11.70
2023-01-07T19:33:27.401Z,11.70
2023-01-07T19:38:27.460Z,11.70
2023-01-07T19:43:26.424Z,11.70
2023-01-07T19:48:25.675Z,11.80
2023-01-07T19:53:24.660Z,11.70
2023-01-07T19:58:23.463Z,11.80
2023-01-07T20:03:22.778Z,11.90
2023-01-07T20:08:21.590Z,11.90
2023-01-07T20:13:20.488Z,11.90
2023-01-07T20:18:19.385Z,11.90
2023-01-07T20:23:18.521Z,11.90
2023-01-07T20:28:17.450Z,11.90
2023-01-07T20:33:16.839Z,11.90
2023-01-07T20:38:15.551Z,11.90
2023-01-07T20:43:14.656Z,11.90
2023-01-07T20:48:14.548Z,11.90
2023-01-07T20:53:13.390Z,11.80
2023-01-07T20:58:12.412Z,11.60
2023-01-07T21:03:11.665Z,11.50
2023-01-07T21:08:10.532Z,11.50
2023-01-07T21:13:09.466Z,11.50
2023-01-07T21:18:08.682Z,11.40
2023-01-07T21:23:07.691Z,11.40
2023-01-07T21:28:06.660Z,11.40
2023-01-07T21:33:05.533Z,11.40
2023-01-07T21:38:05.206Z,11.40
2023-01-07T21:43:04.535Z,11.50
2023-01-07T21:48:03.533Z,11.60
2023-01-07T21:53:02.563Z,11.60
2023-01-07T21:58:01.484Z,11.60
2023-01-07T22:03:00.574Z,11.70
2023-01-07T22:07:59.511Z,11.70
2023-01-07T22:12:58.632Z,11.70
2023-01-07T22:17:57.619Z,11.80
2023-01-07T22:22:56.641Z,11.80
2023-01-07T22:27:55.641Z,11.90
2023-01-07T22:32:54.760Z,11.90
2023-01-07T22:37:53.679Z,11.90
2023-01-07T22:42:52.807Z,12.00
2023-01-07T22:47:51.484Z,12.00
2023-01-07T22:52:50.515Z,12.00
2023-01-07T22:57:49.508Z,12.00
2023-01-07T23:02:50.615Z,12.00
2023-01-07T23:07:49.568Z,12.00
2023-01-07T23:12:48.591Z,12.00
2023-01-07T23:17:47.512Z,12.10
2023-01-07T23:22:46.453Z,12.20
2023-01-07T23:27:45.619Z,12.20
2023-01-07T23:32:45.095Z,12.20
2023-01-07T23:37:43.542Z,12.20
2023-01-07T23:42:42.566Z,12.10
2023-01-07T23:47:41.568Z,12.10
2023-01-07T23:52:40.509Z,12.00
2023-01-07T23:57:39.564Z,12.00
